Durand, MI

11:37 AM EST on February 09, 2016 (GMT -0500)
Vernon Twp - south | | Change Station
CLOSE
Current Station
Personal Weather Station
Location: Durand, MI
Elevation: 824 ft
Nearby Weather Stations

Elev 824 ft 42.88 °N, 83.99 °W | Updated 3 minutes ago

Overcast
Overcast
26.9 °F
Feels Like 18 °F
N
9.7
Wind Variable Wind from North
Gusts 13.3 mph

Today
High -- | Low -- °F
--% Chance of Precip.
Yesterday
High -- | Low -- °F
Precip. -- in
Pressure 29.61 in
Visibility 7.0 miles
Clouds Overcast 1700 ft
Windchill 18 °F
Dew Point 22 °F
Humidity 81%
Rainfall 0.00 in
Snow Depth Not available.
7:41 AM 5:58 PM
New Moon, 2% visible
METAR KRNP 091634Z AUTO 28013G17KT 7SM OVC017 M03/M06 A2961 RMK AO2 T10291058
Pressure 29.61 in
Visibility 7.0 miles
Clouds Overcast 1700 ft
Windchill 18 °F
Dew Point 22 °F
Humidity 81%
Rainfall 0.00 in
Snow Depth Not available.
7:41 AM 5:58 PM
New Moon, 2% visible
METAR KRNP 091634Z AUTO 28013G17KT 7SM OVC017 M03/M06 A2961 RMK AO2 T10291058

10-Day Weather Forecast

Almanac

Astronomy

Feb. 09, 2016 Rise Set
Actual Time
Civil Twilight
Nautical Twilight
Astronomical Twilight
Moon
Length of Visible Light
Length of Day
Tomorrow will be .
, % of the Moon is Illuminated

Today's Extremes

State Highs State Lows

Community

WunderPhotos

Upload Photos

1,891,630 photos uploaded!

WunderBlog® & News

Nearby

Air Quality

  Air Quality AQ Index Pollutant
Not available.

Snow Depth

Station Depth Elevation

Earthquake Activity

City Distance Mag. Time & Date
Minimum magnitude displayed is 2.5.

Coastal Water Temperatures

Place Temperature

Stations

Nearby Weather Stations

Station Location Temp. Windchill Dew Point Humidity Wind Precip. Elev Updated Type
                   

Watches & Warnings

Winter Weather Advisory
Issued: 10:50 AM EST Feb. 9, 2016 – National Weather Service

... Winter Weather Advisory remains in effect until 9 PM EST this
evening...

Hazardous weather...

* an additional 1 to 3 inches is expected this afternoon and
   early evening. Bands of snow showers will continue to spiral
   off of Lake Huron and sweep southwestward.

* Total snow accumulations by this evening will range from 3 to
   6 inches.

Impacts...

* untreated and partially treated roads will be snow-covered
   and slippery.

* Visibility may be severely reduced during times of heavier
   snow.

Precautionary/preparedness actions...

* a Winter Weather Advisory means that periods of snow will
   cause travel difficulties. Be prepared for slippery roads and
   limited visibilities... and use caution while driving.

* Prepare... plan... and stay informed. Visit
   http://go.USA.Gov/rr8



Mann